Hovedside
METAR-TAF:

METAR-TAF

Lufthavner :

Arvidsjaur, Sverige

Arvidsjaur lufthavn

breddegrad: 65-35-25N, lengdegrad: 019-16-55E, høyde over havet: 379 m

Gjeldene værobservasjon

Denne rapporten ble laget for 19 minutter siden, klokken 11:50 UTC
Vind 1 kt fra Nord
Temperatur -5°C
Luftfuktighet 100%
Trykk 992 hPa
Sikt: 8000 m
Overskyet i en høyde av 800 ft
lett snø

METAR: ESNX 151150Z 36001KT 8000 -SN OVC008 M05/M05 Q0992

Tid: 13:09 (12:09 UTC)

Varsel

Denne rapporten ble laget for 39 minutter siden, klokken 11:30 UTC
Varsel gyldig fra 15. klokken 12 UTC til 15. klokken 21 UTC
Vind 4 kt fra Øst
Sikt: 9000 m
Brutte skyer i en høyde av 400 ft
lett snø
Midlertidig
fra 15. klokken 12 UTC til 15. klokken 21 UTC
Sikt: 2000 m
Brutte skyer i en høyde av 1000 ft
snø, (lett) kornsnø

TAF: ESNX 151130Z 1512/1521 09004KT 9000 -SN BKN004 TEMPO 1512/1521 2000 SN -SG BKN010

Værobservasjoner og værvarsel for over 4000 flyplasser (METAR- og TAF-rapporter).

Tilgjengelige stasjoner er representert av de røde og gule prikkene på kartet.

Hold musepekeren over prikken for å se navnet på stasjonen.

Klikk så for å se værobservasjoner og -varsler.

For å forandre kartet kan du klikke på den grønne knappen med svart kryss for å zoome inn, på den grønne knappen med strek for å zoome ut, eller på de grønne pilene for å se tilstøtende kart.


METAR-TAF: